createdAt,value
2023-04-30T00:02:01.027Z,72.60
2023-04-30T00:04:29.247Z,72.60
2023-04-30T00:06:57.017Z,72.60
2023-04-30T00:09:25.729Z,72.60
2023-04-30T00:11:53.390Z,72.50
2023-04-30T00:14:21.611Z,72.60
2023-04-30T00:16:49.362Z,72.70
2023-04-30T00:19:18.253Z,72.70
2023-04-30T00:21:46.403Z,72.70
2023-04-30T00:24:14.590Z,72.70
2023-04-30T00:26:44.621Z,72.70
2023-04-30T00:29:13.344Z,72.70
2023-04-30T00:31:42.200Z,72.70
2023-04-30T00:34:10.586Z,72.70
2023-04-30T00:36:38.742Z,72.80
2023-04-30T00:39:07.075Z,72.80
2023-04-30T00:41:36.524Z,72.80
2023-04-30T00:44:05.181Z,72.90
2023-04-30T00:46:33.119Z,72.90
2023-04-30T00:49:05.269Z,72.80
2023-04-30T00:51:33.864Z,72.80
2023-04-30T00:54:03.699Z,72.80
2023-04-30T00:56:32.158Z,72.90
2023-04-30T00:59:00.588Z,72.80
2023-04-30T01:01:33.183Z,72.80
2023-04-30T01:04:04.076Z,72.90
2023-04-30T01:06:32.172Z,72.90
2023-04-30T01:09:00.722Z,73.00
2023-04-30T01:11:48.495Z,72.90
2023-04-30T01:14:34.143Z,72.90
2023-04-30T01:17:06.245Z,72.90
2023-04-30T01:19:45.409Z,72.90
2023-04-30T01:22:29.821Z,73.00
2023-04-30T01:25:35.315Z,73.00
2023-04-30T01:28:11.146Z,73.00
2023-04-30T01:30:41.125Z,72.80
2023-04-30T01:33:09.244Z,72.70
2023-04-30T01:36:21.705Z,72.70
2023-04-30T01:39:27.600Z,73.00
2023-04-30T01:42:14.551Z,73.10
2023-04-30T01:45:03.504Z,72.90
2023-04-30T01:47:57.903Z,72.80
2023-04-30T01:50:32.577Z,72.90
2023-04-30T01:53:03.608Z,72.90
2023-04-30T01:56:03.222Z,72.90
2023-04-30T01:58:33.634Z,73.10
2023-04-30T02:01:01.361Z,72.90
2023-04-30T02:03:29.688Z,72.90
2023-04-30T02:05:59.472Z,72.90
2023-04-30T02:08:27.638Z,72.90
2023-04-30T02:10:55.292Z,72.90
2023-04-30T02:13:24.879Z,72.90
2023-04-30T02:15:52.620Z,73.00
2023-04-30T02:18:22.324Z,73.00
2023-04-30T02:20:50.937Z,73.00
2023-04-30T02:23:19.186Z,73.00
2023-04-30T02:25:47.139Z,72.90
2023-04-30T02:28:16.188Z,72.90
2023-04-30T02:30:43.920Z,73.00
2023-04-30T02:33:12.841Z,73.00
2023-04-30T02:35:41.838Z,72.90
2023-04-30T02:38:10.342Z,72.80
2023-04-30T02:40:38.131Z,72.70
2023-04-30T02:43:06.815Z,72.70
2023-04-30T02:45:34.712Z,72.60
2023-04-30T02:48:03.533Z,72.60
2023-04-30T02:50:31.237Z,72.50
2023-04-30T02:52:59.430Z,72.60
2023-04-30T02:55:27.232Z,72.60
2023-04-30T02:57:55.361Z,72.50
2023-04-30T03:00:23.475Z,72.60
2023-04-30T03:02:52.186Z,72.60
2023-04-30T03:05:19.946Z,72.70
2023-04-30T03:07:48.249Z,72.70
2023-04-30T03:10:16.552Z,72.70
2023-04-30T03:12:44.715Z,72.70
2023-04-30T03:15:12.551Z,72.70
2023-04-30T03:17:42.114Z,72.70
2023-04-30T03:20:11.664Z,72.80
2023-04-30T03:22:40.162Z,72.90
2023-04-30T03:25:08.951Z,73.00
2023-04-30T03:27:37.115Z,73.10
2023-04-30T03:30:06.346Z,73.20
2023-04-30T03:32:34.486Z,73.30
2023-04-30T03:35:02.459Z,73.30
2023-04-30T03:37:30.653Z,73.30
2023-04-30T03:39:58.462Z,73.30
2023-04-30T03:42:26.717Z,73.30
2023-04-30T03:44:54.774Z,73.30
2023-04-30T03:47:22.939Z,73.20
2023-04-30T03:49:55.920Z,73.10
2023-04-30T03:52:24.961Z,73.00
2023-04-30T03:54:52.743Z,73.00
2023-04-30T03:57:22.021Z,72.80
2023-04-30T03:59:51.019Z,72.80
2023-04-30T04:02:19.467Z,72.70
2023-04-30T04:04:47.477Z,72.70
2023-04-30T04:07:16.073Z,72.70
2023-04-30T04:09:43.975Z,72.50
2023-04-30T04:12:12.181Z,72.40
2023-04-30T04:14:40.262Z,72.50
2023-04-30T04:17:08.900Z,72.50
2023-04-30T04:19:36.931Z,72.50
2023-04-30T04:22:05.253Z,72.60
2023-04-30T04:24:33.738Z,72.90
2023-04-30T04:27:04.218Z,73.00
2023-04-30T04:29:33.864Z,73.20
2023-04-30T04:32:03.295Z,73.30
2023-04-30T04:34:32.990Z,73.40
2023-04-30T04:37:01.886Z,73.90
2023-04-30T04:39:30.048Z,74.20
2023-04-30T04:41:58.682Z,73.80
2023-04-30T04:44:27.555Z,73.30
2023-04-30T04:46:57.220Z,73.30
2023-04-30T04:49:24.931Z,72.70
2023-04-30T04:51:53.508Z,72.10
2023-04-30T04:54:21.662Z,71.90
2023-04-30T04:56:50.723Z,72.20
2023-04-30T04:59:19.255Z,73.00
2023-04-30T05:01:48.455Z,73.70
2023-04-30T05:04:16.254Z,73.30
2023-04-30T05:06:46.544Z,73.40
2023-04-30T05:09:14.756Z,73.90
2023-04-30T05:11:44.221Z,74.60
2023-04-30T05:14:11.980Z,73.70
2023-04-30T05:16:40.490Z,73.80
2023-04-30T05:19:10.021Z,73.80
2023-04-30T05:21:38.166Z,73.20
2023-04-30T05:24:06.195Z,73.00
2023-04-30T05:26:34.521Z,72.30
2023-04-30T05:29:02.266Z,71.00
2023-04-30T05:31:30.491Z,69.40
2023-04-30T05:33:58.804Z,68.00
2023-04-30T05:36:27.348Z,68.20
2023-04-30T05:38:55.198Z,68.70
2023-04-30T05:41:23.265Z,68.80
2023-04-30T05:43:51.880Z,69.40
2023-04-30T05:46:20.272Z,70.30
2023-04-30T05:48:48.918Z,70.50
2023-04-30T05:51:17.450Z,70.30
2023-04-30T05:53:45.102Z,69.90
2023-04-30T05:56:13.694Z,68.70
2023-04-30T05:58:41.519Z,67.90
2023-04-30T06:01:11.403Z,67.90
2023-04-30T06:03:39.464Z,67.60
2023-04-30T06:06:07.753Z,66.70
2023-04-30T06:08:36.141Z,66.50
2023-04-30T06:11:05.577Z,65.60
2023-04-30T06:13:33.583Z,65.30
2023-04-30T06:16:01.642Z,64.20
2023-04-30T06:18:29.618Z,64.30
2023-04-30T06:20:57.766Z,63.20
2023-04-30T06:23:25.757Z,63.00
2023-04-30T06:25:53.849Z,63.00
2023-04-30T06:28:21.958Z,63.00
2023-04-30T06:30:50.352Z,61.60
2023-04-30T06:33:18.358Z,61.90
2023-04-30T06:35:46.823Z,62.10
2023-04-30T06:38:14.988Z,60.40
2023-04-30T06:40:43.172Z,60.70
2023-04-30T06:43:10.962Z,60.20
2023-04-30T06:45:39.768Z,60.00
2023-04-30T06:48:07.789Z,59.70
2023-04-30T06:50:44.499Z,58.90
2023-04-30T06:53:15.902Z,58.70
2023-04-30T06:55:50.760Z,58.70
2023-04-30T06:58:23.563Z,59.20
2023-04-30T07:00:52.613Z,60.10
2023-04-30T07:03:20.280Z,61.30
2023-04-30T07:05:48.782Z,60.10
2023-04-30T07:08:16.539Z,59.80
2023-04-30T07:10:44.749Z,58.90
2023-04-30T07:13:12.589Z,57.00
2023-04-30T07:15:40.914Z,56.20
2023-04-30T07:18:10.295Z,56.50
2023-04-30T07:20:39.062Z,56.10
2023-04-30T07:23:06.785Z,55.00
2023-04-30T07:25:36.030Z,53.20
2023-04-30T07:28:04.228Z,52.60
2023-04-30T07:30:32.459Z,53.10
2023-04-30T07:33:00.595Z,51.40
2023-04-30T07:35:28.938Z,50.80
2023-04-30T07:37:57.173Z,51.40
2023-04-30T07:40:35.261Z,51.40
2023-04-30T07:43:06.552Z,50.30
2023-04-30T07:45:35.448Z,49.50
2023-04-30T07:48:03.228Z,49.50
2023-04-30T07:50:35.045Z,49.50
2023-04-30T07:53:02.983Z,49.30
2023-04-30T07:55:31.534Z,48.50
2023-04-30T07:57:59.913Z,47.60
2023-04-30T08:00:29.702Z,46.40
2023-04-30T08:02:59.689Z,45.70
2023-04-30T08:05:29.219Z,46.30
2023-04-30T08:07:57.228Z,45.90
2023-04-30T08:10:26.705Z,44.90
2023-04-30T08:12:55.090Z,44.10
2023-04-30T08:15:23.506Z,44.50
2023-04-30T08:17:52.298Z,44.20
2023-04-30T08:20:20.960Z,44.00
2023-04-30T08:22:49.613Z,43.60
2023-04-30T08:25:18.301Z,42.20
2023-04-30T08:27:46.604Z,41.70
2023-04-30T08:30:14.850Z,41.50
2023-04-30T08:32:42.823Z,41.10
2023-04-30T08:35:14.335Z,40.60
2023-04-30T08:37:42.285Z,40.80
2023-04-30T08:40:12.440Z,41.20
2023-04-30T08:42:47.785Z,41.20
2023-04-30T08:45:16.721Z,40.20
2023-04-30T08:47:47.187Z,40.30
2023-04-30T08:50:15.439Z,40.90
2023-04-30T08:52:44.903Z,40.50
2023-04-30T08:55:13.763Z,41.10
2023-04-30T08:57:41.477Z,41.50
2023-04-30T09:00:10.242Z,42.50
2023-04-30T09:02:45.745Z,42.40
2023-04-30T09:05:16.318Z,41.00
2023-04-30T09:08:01.232Z,39.50
2023-04-30T09:10:34.373Z,39.80
2023-04-30T09:13:09.369Z,39.50
2023-04-30T09:15:41.554Z,38.40
2023-04-30T09:18:17.005Z,37.40
2023-04-30T09:21:02.518Z,37.70
2023-04-30T09:23:30.985Z,39.30
2023-04-30T09:25:59.296Z,38.90
2023-04-30T09:28:29.101Z,37.60
2023-04-30T09:30:57.827Z,36.70
2023-04-30T09:33:25.714Z,37.60
2023-04-30T09:35:54.063Z,36.40
2023-04-30T09:38:30.424Z,37.20
2023-04-30T09:41:02.436Z,37.30
2023-04-30T09:43:31.987Z,36.90
2023-04-30T09:46:00.688Z,35.80
2023-04-30T09:48:29.528Z,35.70
2023-04-30T09:50:58.522Z,34.70
2023-04-30T09:53:27.422Z,34.70
2023-04-30T09:56:00.226Z,34.90
2023-04-30T09:58:29.569Z,35.40
2023-04-30T10:01:01.755Z,36.50
2023-04-30T10:03:31.927Z,36.90
2023-04-30T10:06:00.333Z,35.90
2023-04-30T10:08:31.954Z,34.90
2023-04-30T10:11:05.178Z,34.70
2023-04-30T10:13:39.609Z,34.90
2023-04-30T10:16:37.502Z,34.50
2023-04-30T10:19:10.791Z,35.50
2023-04-30T10:21:42.824Z,35.90
2023-04-30T10:24:11.967Z,35.90
2023-04-30T10:26:41.971Z,35.50
2023-04-30T10:29:10.324Z,35.00
2023-04-30T10:31:39.863Z,34.70
2023-04-30T10:34:10.527Z,35.40
2023-04-30T10:36:49.271Z,34.70
2023-04-30T10:39:23.168Z,33.70
2023-04-30T10:41:52.690Z,34.00
2023-04-30T10:44:26.055Z,34.40
2023-04-30T10:47:02.052Z,34.80
2023-04-30T10:49:31.442Z,34.30
2023-04-30T10:52:04.503Z,34.80
2023-04-30T10:54:37.493Z,34.40
2023-04-30T10:57:18.033Z,33.70
2023-04-30T11:00:08.550Z,33.40
2023-04-30T11:02:41.484Z,34.00
2023-04-30T11:05:19.887Z,34.50
2023-04-30T11:07:56.567Z,33.70
2023-04-30T11:10:26.706Z,33.50
2023-04-30T11:12:56.144Z,33.00
2023-04-30T11:15:33.191Z,32.30
2023-04-30T11:18:01.431Z,32.50
2023-04-30T11:20:29.509Z,32.00
2023-04-30T11:23:19.561Z,31.50
2023-04-30T11:26:01.300Z,30.90
2023-04-30T11:28:31.213Z,31.20
2023-04-30T11:31:01.516Z,31.00
2023-04-30T11:33:32.060Z,30.70
2023-04-30T11:36:01.883Z,30.50
2023-04-30T11:38:37.429Z,30.10
2023-04-30T11:41:05.687Z,30.40
2023-04-30T11:43:36.581Z,30.00
2023-04-30T11:46:16.619Z,29.70
2023-04-30T11:48:46.642Z,29.70
2023-04-30T11:51:24.456Z,29.70
2023-04-30T11:53:56.573Z,29.70
2023-04-30T11:56:25.824Z,29.50
2023-04-30T11:58:56.314Z,29.60
2023-04-30T12:01:28.869Z,29.60
2023-04-30T12:03:57.899Z,29.50
2023-04-30T12:06:28.786Z,29.00
2023-04-30T12:08:59.272Z,29.50
2023-04-30T12:11:30.534Z,29.60
2023-04-30T12:14:05.894Z,29.50
2023-04-30T12:16:51.282Z,29.50
2023-04-30T12:19:21.283Z,29.30
2023-04-30T12:21:50.183Z,29.10
2023-04-30T12:24:19.939Z,29.30
2023-04-30T12:26:48.419Z,29.00
2023-04-30T12:29:19.136Z,29.00
2023-04-30T12:31:51.607Z,28.90
2023-04-30T12:34:19.850Z,29.10
2023-04-30T12:36:47.714Z,29.40
2023-04-30T12:39:16.587Z,29.60
2023-04-30T12:41:46.473Z,29.70
2023-04-30T12:44:26.375Z,29.90
2023-04-30T12:46:57.582Z,30.20
2023-04-30T12:49:35.282Z,30.10
2023-04-30T12:52:11.729Z,30.10
2023-04-30T12:54:40.793Z,30.20
2023-04-30T12:57:12.616Z,30.20
2023-04-30T12:59:54.025Z,30.30
2023-04-30T13:02:27.666Z,30.40
2023-04-30T13:04:56.123Z,30.40
2023-04-30T13:07:24.870Z,30.30
2023-04-30T13:09:54.820Z,30.40
2023-04-30T13:12:24.600Z,30.60
2023-04-30T13:14:52.697Z,30.50
2023-04-30T13:17:20.561Z,30.70
2023-04-30T13:19:48.574Z,30.70
2023-04-30T13:22:16.336Z,30.70
2023-04-30T13:24:44.708Z,30.70
2023-04-30T13:27:13.060Z,30.90
2023-04-30T13:29:41.401Z,31.00
2023-04-30T13:32:10.505Z,30.60
2023-04-30T13:34:39.334Z,30.70
2023-04-30T13:37:07.110Z,30.60
2023-04-30T13:39:35.386Z,30.60
2023-04-30T13:42:04.553Z,31.00
2023-04-30T13:44:34.186Z,31.40
2023-04-30T13:47:02.014Z,31.50
2023-04-30T13:49:30.279Z,31.40
2023-04-30T13:51:58.063Z,31.50
2023-04-30T13:54:26.253Z,31.60
2023-04-30T13:56:54.428Z,31.70
2023-04-30T13:59:22.899Z,31.80
2023-04-30T14:01:53.067Z,32.00
2023-04-30T14:04:21.797Z,32.10
2023-04-30T14:06:50.348Z,32.20
2023-04-30T14:09:18.860Z,32.30
2023-04-30T14:11:46.627Z,32.30
2023-04-30T14:14:14.780Z,32.30
2023-04-30T14:16:44.006Z,32.30
2023-04-30T14:19:12.211Z,32.40
2023-04-30T14:21:39.933Z,32.50
2023-04-30T14:24:08.767Z,32.60
2023-04-30T14:26:38.645Z,32.60
2023-04-30T14:29:07.922Z,32.60
2023-04-30T14:31:37.968Z,32.70
2023-04-30T14:34:07.030Z,32.90
2023-04-30T14:36:36.403Z,32.90
2023-04-30T14:39:05.060Z,33.00
2023-04-30T14:41:36.944Z,33.10
2023-04-30T14:44:06.158Z,33.10
2023-04-30T14:46:35.187Z,33.10
2023-04-30T14:49:04.571Z,33.20
2023-04-30T14:51:33.022Z,33.30
2023-04-30T14:54:02.503Z,33.30
2023-04-30T14:56:31.469Z,33.40
2023-04-30T14:58:59.702Z,33.40
2023-04-30T15:01:28.753Z,33.40
2023-04-30T15:03:57.197Z,33.50
2023-04-30T15:06:24.984Z,33.60
2023-04-30T15:08:53.591Z,33.80
2023-04-30T15:11:21.568Z,33.80
2023-04-30T15:13:50.298Z,34.00
2023-04-30T15:16:18.665Z,34.20
2023-04-30T15:18:49.126Z,34.40
2023-04-30T15:21:16.974Z,34.30
2023-04-30T15:23:46.507Z,34.40
2023-04-30T15:26:14.587Z,34.40
2023-04-30T15:28:42.627Z,34.50
2023-04-30T15:31:11.635Z,34.50
2023-04-30T15:33:42.435Z,34.50
2023-04-30T15:36:10.947Z,34.40
2023-04-30T15:38:39.336Z,34.40
2023-04-30T15:41:07.006Z,34.50
2023-04-30T15:43:35.336Z,34.80
2023-04-30T15:46:03.572Z,34.90
2023-04-30T15:48:31.999Z,35.10
2023-04-30T15:51:00.380Z,35.10
2023-04-30T15:53:29.396Z,35.20
2023-04-30T15:55:57.767Z,35.40
2023-04-30T15:58:26.088Z,35.50
2023-04-30T16:00:54.230Z,35.50
2023-04-30T16:03:22.942Z,35.50
2023-04-30T16:05:50.809Z,35.40
2023-04-30T16:08:18.933Z,35.60
2023-04-30T16:10:48.016Z,35.50
2023-04-30T16:13:16.521Z,35.60
2023-04-30T16:15:45.648Z,35.80
2023-04-30T16:18:13.642Z,35.80
2023-04-30T16:20:43.397Z,35.90
2023-04-30T16:23:11.625Z,35.90
2023-04-30T16:25:40.308Z,35.80
2023-04-30T16:28:09.278Z,35.80
2023-04-30T16:30:37.308Z,35.80
2023-04-30T16:33:05.904Z,35.70
2023-04-30T16:35:35.159Z,35.70
2023-04-30T16:38:03.531Z,35.80
2023-04-30T16:40:31.483Z,35.80
2023-04-30T16:43:01.211Z,35.90
2023-04-30T16:45:30.619Z,35.90
2023-04-30T16:47:59.348Z,36.00
2023-04-30T16:50:28.394Z,36.10
2023-04-30T16:52:57.368Z,36.00
2023-04-30T16:55:26.413Z,36.00
2023-04-30T16:57:54.746Z,36.00
2023-04-30T17:00:23.502Z,36.10
2023-04-30T17:02:53.736Z,36.20
2023-04-30T17:05:22.143Z,36.20
2023-04-30T17:07:50.296Z,36.20
2023-04-30T17:10:19.933Z,36.20
2023-04-30T17:12:48.647Z,36.30
2023-04-30T17:15:18.927Z,36.30
2023-04-30T17:17:48.533Z,36.40
2023-04-30T17:20:16.502Z,36.50
2023-04-30T17:22:46.295Z,36.50
2023-04-30T17:25:18.727Z,36.60
2023-04-30T17:27:48.029Z,36.60
2023-04-30T17:30:16.417Z,36.70
2023-04-30T17:32:45.189Z,36.70
2023-04-30T17:35:15.657Z,36.70
2023-04-30T17:37:44.084Z,36.70
2023-04-30T17:40:12.477Z,36.80
2023-04-30T17:42:45.685Z,36.90
2023-04-30T17:45:13.977Z,37.00
2023-04-30T17:47:44.703Z,37.00
2023-04-30T17:50:14.307Z,37.00
2023-04-30T17:52:43.569Z,37.00
2023-04-30T17:55:13.933Z,37.10
2023-04-30T17:57:43.170Z,37.20
2023-04-30T18:00:15.204Z,37.20
2023-04-30T18:02:43.897Z,37.20
2023-04-30T18:05:12.403Z,37.20
2023-04-30T18:07:41.592Z,37.30
2023-04-30T18:10:10.110Z,37.30
2023-04-30T18:12:39.981Z,37.40
2023-04-30T18:15:09.085Z,37.50
2023-04-30T18:17:37.956Z,37.50
2023-04-30T18:20:09.815Z,37.50
2023-04-30T18:22:44.810Z,37.60
2023-04-30T18:25:14.015Z,37.60
2023-04-30T18:27:42.457Z,37.50
2023-04-30T18:30:13.322Z,37.50
2023-04-30T18:32:45.500Z,37.60
2023-04-30T18:35:13.999Z,37.60
2023-04-30T18:37:42.265Z,37.60
2023-04-30T18:40:11.194Z,37.60
2023-04-30T18:42:40.138Z,37.70
2023-04-30T18:45:09.885Z,37.70
2023-04-30T18:47:47.833Z,37.80
2023-04-30T18:50:18.313Z,37.80
2023-04-30T18:52:48.355Z,37.90
2023-04-30T18:55:16.819Z,38.00
2023-04-30T18:57:46.092Z,38.00
2023-04-30T19:00:21.010Z,38.00
2023-04-30T19:02:52.203Z,38.10
2023-04-30T19:05:21.314Z,38.10
2023-04-30T19:07:50.563Z,38.10
2023-04-30T19:10:20.129Z,38.10
2023-04-30T19:12:50.141Z,38.10
2023-04-30T19:15:18.914Z,38.10
2023-04-30T19:17:48.530Z,38.10
2023-04-30T19:20:19.092Z,38.10
2023-04-30T19:22:50.467Z,38.10
2023-04-30T19:25:19.405Z,38.20
2023-04-30T19:27:48.114Z,38.20
2023-04-30T19:30:17.174Z,38.30
2023-04-30T19:32:47.733Z,38.30
2023-04-30T19:35:17.350Z,38.30
2023-04-30T19:37:49.625Z,38.30
2023-04-30T19:40:19.306Z,38.40
2023-04-30T19:42:50.226Z,38.40
2023-04-30T19:45:19.770Z,38.40
2023-04-30T19:47:50.099Z,38.50
2023-04-30T19:50:20.738Z,38.60
2023-04-30T19:52:50.359Z,38.60
2023-04-30T19:55:19.177Z,38.60
2023-04-30T19:57:50.312Z,38.60
2023-04-30T20:00:19.422Z,38.60
2023-04-30T20:02:52.332Z,38.70
2023-04-30T20:05:22.448Z,38.70
2023-04-30T20:07:54.326Z,38.80
2023-04-30T20:10:23.415Z,38.80
2023-04-30T20:13:03.777Z,38.80
2023-04-30T20:15:33.537Z,38.90
2023-04-30T20:18:07.792Z,38.90
2023-04-30T20:20:36.896Z,38.90
2023-04-30T20:23:16.836Z,39.00
2023-04-30T20:25:46.541Z,39.00
2023-04-30T20:28:16.860Z,39.00
2023-04-30T20:30:45.449Z,39.10
2023-04-30T20:33:15.386Z,39.10
2023-04-30T20:35:50.120Z,39.20
2023-04-30T20:38:22.566Z,39.30
2023-04-30T20:40:51.993Z,39.30
2023-04-30T20:43:21.179Z,39.30
2023-04-30T20:45:49.939Z,39.30
2023-04-30T20:48:20.228Z,39.40
2023-04-30T20:50:48.087Z,39.50
2023-04-30T20:53:20.671Z,39.50
2023-04-30T20:55:50.047Z,39.60
2023-04-30T20:58:18.131Z,39.60
2023-04-30T21:00:46.223Z,39.60
2023-04-30T21:03:14.460Z,39.70
2023-04-30T21:05:43.188Z,39.80
2023-04-30T21:08:12.247Z,39.80
2023-04-30T21:10:41.329Z,39.90
2023-04-30T21:13:11.652Z,40.00
2023-04-30T21:15:40.820Z,40.00
2023-04-30T21:18:09.649Z,40.10
2023-04-30T21:20:37.982Z,40.10
2023-04-30T21:23:06.442Z,40.20
2023-04-30T21:25:38.013Z,40.30
2023-04-30T21:28:07.101Z,40.30
2023-04-30T21:30:37.388Z,40.40
2023-04-30T21:33:05.576Z,40.40
2023-04-30T21:35:35.334Z,40.40
2023-04-30T21:38:03.504Z,40.50
2023-04-30T21:40:34.509Z,40.50
2023-04-30T21:43:02.527Z,40.60
2023-04-30T21:45:32.210Z,40.60
2023-04-30T21:48:01.896Z,40.50
2023-04-30T21:50:33.080Z,40.60
2023-04-30T21:53:02.514Z,40.70
2023-04-30T21:55:32.468Z,40.80
2023-04-30T21:58:00.755Z,40.70
2023-04-30T22:00:28.831Z,40.70
2023-04-30T22:02:57.286Z,40.70
2023-04-30T22:05:26.601Z,40.80
2023-04-30T22:07:57.971Z,40.80
2023-04-30T22:10:26.050Z,41.00
2023-04-30T22:12:54.103Z,41.00
2023-04-30T22:15:22.045Z,41.00
2023-04-30T22:17:50.260Z,41.00
2023-04-30T22:20:18.316Z,41.00
2023-04-30T22:22:46.762Z,41.10
2023-04-30T22:25:14.724Z,41.20
2023-04-30T22:27:42.799Z,41.20
2023-04-30T22:30:10.631Z,41.20
2023-04-30T22:32:38.853Z,41.20
2023-04-30T22:35:11.286Z,41.20
2023-04-30T22:37:39.962Z,41.20
2023-04-30T22:40:08.251Z,41.40
2023-04-30T22:42:36.836Z,41.50
2023-04-30T22:45:05.354Z,41.60
2023-04-30T22:47:35.402Z,41.70
2023-04-30T22:50:03.899Z,41.70
2023-04-30T22:52:33.354Z,41.70
2023-04-30T22:55:05.726Z,41.70
2023-04-30T22:57:33.949Z,41.80
2023-04-30T23:00:01.735Z,41.90
2023-04-30T23:02:30.630Z,41.90
2023-04-30T23:04:58.330Z,41.90
2023-04-30T23:07:26.687Z,42.00
2023-04-30T23:09:54.799Z,42.10
2023-04-30T23:12:23.726Z,42.20
2023-04-30T23:14:51.507Z,42.20
2023-04-30T23:17:19.754Z,42.30
2023-04-30T23:19:47.592Z,42.30
2023-04-30T23:22:17.375Z,42.40
2023-04-30T23:24:44.984Z,42.50
2023-04-30T23:27:13.239Z,42.50
2023-04-30T23:29:41.107Z,42.60
2023-04-30T23:32:09.766Z,42.70
2023-04-30T23:34:37.755Z,42.70
2023-04-30T23:37:05.890Z,42.70
2023-04-30T23:39:33.956Z,42.80
2023-04-30T23:42:02.981Z,42.80
2023-04-30T23:44:32.665Z,42.90
2023-04-30T23:47:01.539Z,42.90
2023-04-30T23:49:29.519Z,42.90
2023-04-30T23:51:57.587Z,42.90
2023-04-30T23:54:25.345Z,43.00
2023-04-30T23:56:53.871Z,43.10
2023-04-30T23:59:23.991Z,43.10
